Sunday, October 22, 2017, 8:33 PM EDT
Back to Local

KCAK, Akron-canton Regional Airport

Location: Canton, OH, United States Lat: 40.917
Local Time: 8:33 PM EDT ( 0:33 GMT) Lon: -81.45
Time Zone: US/Eastern Elev: 1227 ft

Show me the last for .
Show Coded

Time T Td Feel RH Dir Speed Gust Alt SLP Vis Weather Sky Remarks
2017-10-22 19:51 67 49 - 52 160° 9 - 30.16 30.15 10 SCT200 OVC250 6-hr Min Temp (8pm): 66.9°F
6-hr Max Temp (8pm): 77.0°F
2017-10-22 18:51 68 49 - 50 150° 8 - 30.16 30.15 10 SCT200 BKN250 None
2017-10-22 17:51 72 50 76 45 170° 9 - 30.16 30.15 10 BKN250 None
2017-10-22 16:51 75 48 - 38 200° 12 - 30.15 30.14 10 SCT210 BKN250 None
2017-10-22 15:51 77 50 - 38 180° 13 - 30.16 30.14 10 SCT250 None
2017-10-22 14:51 76 50 77 40 190° 12 - 30.19 30.17 10 BKN250 None
2017-10-22 13:51 74 51 76 44 190° 10 - 30.22 30.20 10 BKN250 6-hr Min Temp (2pm): 54.0°F
6-hr Max Temp (2pm): 75.0°F
2017-10-22 12:51 72 51 76 47 200° 8 - 30.25 30.23 10 BKN250 None
2017-10-22 11:51 70 51 - 51 190° 8 - 30.26 30.25 10 BKN250 None
2017-10-22 10:51 68 52 - 56 200° 10 - 30.27 30.27 10 BKN250 None
2017-10-22 09:51 63 52 - 67 190° 8 - 30.27 30.26 10 BKN250 None
2017-10-22 08:51 56 49 - 77 160° 6 - 30.26 30.26 10 SCT250 None
2017-10-22 07:51 54 48 - 80 140° 8 - 30.26 30.25 10 SCT250 6-hr Min Temp (8am): 52.0°F
6-hr Max Temp (8am): 57.0°F
2017-10-22 06:51 56 49 - 77 130° 9 - 30.25 30.25 10 SCT250 None
2017-10-22 05:51 53 48 - 82 120° 5 - 30.26 30.26 10 FEW250 None
2017-10-22 04:51 55 49 - 79 120° 3 - 30.25 30.24 10 SCT250 None
2017-10-22 03:51 56 49 - 77 150° 3 - 30.24 30.23 10 SCT250 None
2017-10-22 02:51 56 49 - 77 150° 5 - 30.24 30.23 10 FEW150 SCT250 None
2017-10-22 01:51 57 50 - 77 170° 7 - 30.23 30.22 10 FEW150 SCT200 6-hr Min Temp (2am): 55.9°F
6-hr Max Temp (2am): 63.0°F
2017-10-22 00:51 57 49 - 74 160° 6 - 30.24 30.23 10 FEW150 SCT200 24-hr Min Temp (1am): 48.9°F
24-hr Max Temp (1am): 73.0°F
2017-10-21 23:51 57 49 - 74 180° 7 - 30.24 30.23 10 SCT250 None
2017-10-21 22:51 56 48 - 74 190° 7 - 30.25 30.25 10 OVC250 None
2017-10-21 21:51 60 49 - 66 160° 7 - 30.26 30.25 10 OVC240 None
2017-10-21 20:51 62 49 - 62 170° 6 - 30.26 30.26 10 OVC240 None

Support USWX by starting your Amazon purchase here.